sensor_id;sensor_type;location;lat;lon;timestamp;pressure;altitude;pressure_sealevel;temperature;humidity
64080;BME280;51042;49.696;10.808;2023-05-12T00:02:10;98258.00;;;10.33;100.00
64080;BME280;51042;49.696;10.808;2023-05-12T00:04:35;98263.50;;;10.33;100.00
64080;BME280;51042;49.696;10.808;2023-05-12T00:07:01;98265.91;;;10.31;100.00
64080;BME280;51042;49.696;10.808;2023-05-12T00:09:27;98261.63;;;10.30;100.00
64080;BME280;51042;49.696;10.808;2023-05-12T00:11:53;98255.81;;;10.28;100.00
64080;BME280;51042;49.696;10.808;2023-05-12T00:14:18;98267.63;;;10.25;100.00
64080;BME280;51042;49.696;10.808;2023-05-12T00:16:44;98260.63;;;10.24;100.00
64080;BME280;51042;49.696;10.808;2023-05-12T00:19:11;98259.09;;;10.23;100.00
64080;BME280;51042;49.696;10.808;2023-05-12T00:21:36;98264.47;;;10.27;100.00
64080;BME280;51042;49.696;10.808;2023-05-12T00:24:02;98262.16;;;10.25;100.00
64080;BME280;51042;49.696;10.808;2023-05-12T00:26:27;98258.22;;;10.26;100.00
64080;BME280;51042;49.696;10.808;2023-05-12T00:28:52;98257.00;;;10.27;100.00
64080;BME280;51042;49.696;10.808;2023-05-12T00:31:18;98255.03;;;10.28;100.00
64080;BME280;51042;49.696;10.808;2023-05-12T00:33:43;98256.59;;;10.29;100.00
64080;BME280;51042;49.696;10.808;2023-05-12T00:36:08;98261.63;;;10.30;100.00
64080;BME280;51042;49.696;10.808;2023-05-12T00:38:33;98263.59;;;10.30;100.00
64080;BME280;51042;49.696;10.808;2023-05-12T00:41:01;98260.88;;;10.30;100.00
64080;BME280;51042;49.696;10.808;2023-05-12T00:43:26;98259.31;;;10.29;100.00
64080;BME280;51042;49.696;10.808;2023-05-12T00:45:52;98257.34;;;10.29;100.00
64080;BME280;51042;49.696;10.808;2023-05-12T00:48:17;98255.81;;;10.28;100.00
64080;BME280;51042;49.696;10.808;2023-05-12T00:50:43;98262.50;;;10.27;100.00
64080;BME280;51042;49.696;10.808;2023-05-12T00:53:09;98265.25;;;10.27;100.00
64080;BME280;51042;49.696;10.808;2023-05-12T00:55:34;98258.22;;;10.26;100.00
64080;BME280;51042;49.696;10.808;2023-05-12T00:58:01;98257.44;;;10.26;100.00
64080;BME280;51042;49.696;10.808;2023-05-12T01:00:27;98252.72;;;10.26;100.00
64080;BME280;51042;49.696;10.808;2023-05-12T01:02:53;98253.94;;;10.25;100.00
64080;BME280;51042;49.696;10.808;2023-05-12T01:05:22;98249.97;;;10.26;100.00
64080;BME280;51042;49.696;10.808;2023-05-12T01:07:54;98251.94;;;10.26;100.00
64080;BME280;51042;49.696;10.808;2023-05-12T01:10:20;98254.69;;;10.26;100.00
64080;BME280;51042;49.696;10.808;2023-05-12T01:12:46;98253.50;;;10.27;100.00
64080;BME280;51042;49.696;10.808;2023-05-12T01:15:12;98242.97;;;10.25;100.00
64080;BME280;51042;49.696;10.808;2023-05-12T01:17:38;98253.94;;;10.25;100.00
64080;BME280;51042;49.696;10.808;2023-05-12T01:20:06;98246.59;;;10.22;100.00
64080;BME280;51042;49.696;10.808;2023-05-12T01:22:34;98245.81;;;10.21;100.00
64080;BME280;51042;49.696;10.808;2023-05-12T01:25:02;98244.28;;;10.20;100.00
64080;BME280;51042;49.696;10.808;2023-05-12T01:27:29;98245.94;;;10.18;100.00
64080;BME280;51042;49.696;10.808;2023-05-12T01:29:59;98240.75;;;10.20;100.00
64080;BME280;51042;49.696;10.808;2023-05-12T01:32:27;98252.19;;;10.18;100.00
64080;BME280;51042;49.696;10.808;2023-05-12T01:34:54;98252.94;;;10.19;100.00
64080;BME280;51042;49.696;10.808;2023-05-12T01:37:19;98250.63;;;10.17;100.00
64080;BME280;51042;49.696;10.808;2023-05-12T01:39:45;98251.41;;;10.18;100.00
64080;BME280;51042;49.696;10.808;2023-05-12T01:42:10;98250.88;;;10.23;100.00
64080;BME280;51042;49.696;10.808;2023-05-12T01:44:35;98247.34;;;10.22;100.00
64080;BME280;51042;49.696;10.808;2023-05-12T01:47:01;98249.75;;;10.20;100.00
64080;BME280;51042;49.696;10.808;2023-05-12T01:49:26;98247.00;;;10.20;100.00
64080;BME280;51042;49.696;10.808;2023-05-12T01:51:52;98247.44;;;10.19;100.00
64080;BME280;51042;49.696;10.808;2023-05-12T01:54:17;98242.72;;;10.19;100.00
64080;BME280;51042;49.696;10.808;2023-05-12T01:56:43;98240.44;;;10.18;100.00
64080;BME280;51042;49.696;10.808;2023-05-12T01:59:08;98245.97;;;10.14;100.00
64080;BME280;51042;49.696;10.808;2023-05-12T02:01:33;98247.94;;;10.14;100.00
64080;BME280;51042;49.696;10.808;2023-05-12T02:03:59;98237.31;;;10.16;100.00
64080;BME280;51042;49.696;10.808;2023-05-12T02:06:25;98239.69;;;10.17;100.00
64080;BME280;51042;49.696;10.808;2023-05-12T02:08:51;98256.00;;;10.21;100.00
64080;BME280;51042;49.696;10.808;2023-05-12T02:11:16;98243.97;;;10.18;100.00
64080;BME280;51042;49.696;10.808;2023-05-12T02:13:41;98245.94;;;10.18;100.00
64080;BME280;51042;49.696;10.808;2023-05-12T02:16:08;98251.03;;;10.16;100.00
64080;BME280;51042;49.696;10.808;2023-05-12T02:18:34;98247.63;;;10.12;100.00
64080;BME280;51042;49.696;10.808;2023-05-12T02:20:59;98253.56;;;10.10;100.00
64080;BME280;51042;49.696;10.808;2023-05-12T02:23:24;98244.13;;;10.11;100.00
64080;BME280;51042;49.696;10.808;2023-05-12T02:25:50;98247.63;;;10.12;100.00
64080;BME280;51042;49.696;10.808;2023-05-12T02:28:15;98247.63;;;10.12;100.00
64080;BME280;51042;49.696;10.808;2023-05-12T02:30:47;98247.63;;;10.12;100.00
64080;BME280;51042;49.696;10.808;2023-05-12T02:33:15;98248.84;;;10.11;100.00
64080;BME280;51042;49.696;10.808;2023-05-12T02:35:41;98251.59;;;10.11;100.00
64080;BME280;51042;49.696;10.808;2023-05-12T02:38:07;98252.66;;;10.13;100.00
64080;BME280;51042;49.696;10.808;2023-05-12T02:40:33;98250.69;;;10.14;100.00
64080;BME280;51042;49.696;10.808;2023-05-12T02:42:58;98243.66;;;10.13;100.00
64080;BME280;51042;49.696;10.808;2023-05-12T02:45:23;98247.63;;;10.12;100.00
64080;BME280;51042;49.696;10.808;2023-05-12T02:47:49;98240.63;;;10.11;100.00
64080;BME280;51042;49.696;10.808;2023-05-12T02:50:14;98246.41;;;10.13;100.00
64080;BME280;51042;49.696;10.808;2023-05-12T02:52:40;98234.25;;;10.14;100.00
64080;BME280;51042;49.696;10.808;2023-05-12T02:55:06;98233.47;;;10.13;100.00
64080;BME280;51042;49.696;10.808;2023-05-12T02:57:31;98235.44;;;10.13;100.00
64080;BME280;51042;49.696;10.808;2023-05-12T02:59:58;98233.47;;;10.13;100.00
64080;BME280;51042;49.696;10.808;2023-05-12T03:02:24;98234.25;;;10.14;100.00
64080;BME280;51042;49.696;10.808;2023-05-12T03:04:49;98239.72;;;10.14;100.00
64080;BME280;51042;49.696;10.808;2023-05-12T03:07:14;98231.50;;;10.14;100.00
64080;BME280;51042;49.696;10.808;2023-05-12T03:09:39;98230.72;;;10.13;100.00
64080;BME280;51042;49.696;10.808;2023-05-12T03:12:05;98233.94;;;10.12;100.00
64080;BME280;51042;49.696;10.808;2023-05-12T03:14:31;98229.97;;;10.13;100.00
64080;BME280;51042;49.696;10.808;2023-05-12T03:16:56;98225.25;;;10.13;100.00
64080;BME280;51042;49.696;10.808;2023-05-12T03:19:21;98224.16;;;10.11;100.00
64080;BME280;51042;49.696;10.808;2023-05-12T03:21:47;98230.41;;;10.11;100.00
64080;BME280;51042;49.696;10.808;2023-05-12T03:24:12;98227.22;;;10.13;100.00
64080;BME280;51042;49.696;10.808;2023-05-12T03:26:37;98234.25;;;10.14;100.00
64080;BME280;51042;49.696;10.808;2023-05-12T03:29:03;98225.69;;;10.12;100.00
64080;BME280;51042;49.696;10.808;2023-05-12T03:31:28;98223.72;;;10.12;100.00
64080;BME280;51042;49.696;10.808;2023-05-12T03:33:53;98225.25;;;10.13;100.00
64080;BME280;51042;49.696;10.808;2023-05-12T03:36:18;98228.00;;;10.13;100.00
64080;BME280;51042;49.696;10.808;2023-05-12T03:38:44;98224.81;;;10.15;100.00
64080;BME280;51042;49.696;10.808;2023-05-12T03:41:09;98225.50;;;10.19;100.00
64080;BME280;51042;49.696;10.808;2023-05-12T03:43:35;98222.44;;;10.17;100.00
64080;BME280;51042;49.696;10.808;2023-05-12T03:46:00;98228.69;;;10.17;100.00
64080;BME280;51042;49.696;10.808;2023-05-12T03:48:25;98222.34;;;10.20;100.00
64080;BME280;51042;49.696;10.808;2023-05-12T03:50:51;98223.09;;;10.21;100.00
64080;BME280;51042;49.696;10.808;2023-05-12T03:53:19;98222.25;;;10.24;100.00
64080;BME280;51042;49.696;10.808;2023-05-12T03:55:44;98232.44;;;10.23;100.00
64080;BME280;51042;49.696;10.808;2023-05-12T03:58:10;98227.28;;;10.26;100.00
64080;BME280;51042;49.696;10.808;2023-05-12T04:00:35;98227.72;;;10.24;100.00
64080;BME280;51042;49.696;10.808;2023-05-12T04:03:00;98221.78;;;10.26;100.00
64080;BME280;51042;49.696;10.808;2023-05-12T04:05:25;98222.25;;;10.24;100.00
64080;BME280;51042;49.696;10.808;2023-05-12T04:07:51;98222.56;;;10.26;100.00
64080;BME280;51042;49.696;10.808;2023-05-12T04:10:16;98226.06;;;10.27;100.00
64080;BME280;51042;49.696;10.808;2023-05-12T04:12:41;98222.91;;;10.28;100.00
64080;BME280;51042;49.696;10.808;2023-05-12T04:15:07;98223.25;;;10.30;100.00
64080;BME280;51042;49.696;10.808;2023-05-12T04:17:33;98218.84;;;10.33;100.00
64080;BME280;51042;49.696;10.808;2023-05-12T04:19:58;98223.13;;;10.34;100.00
64080;BME280;51042;49.696;10.808;2023-05-12T04:22:23;98232.47;;;10.36;100.00
64080;BME280;51042;49.696;10.808;2023-05-12T04:24:49;98241.00;;;10.38;100.00
64080;BME280;51042;49.696;10.808;2023-05-12T04:27:14;98230.50;;;10.37;100.00
64080;BME280;51042;49.696;10.808;2023-05-12T04:29:39;98228.50;;;10.37;100.00
64080;BME280;51042;49.696;10.808;2023-05-12T04:32:05;98244.22;;;10.37;100.00
64080;BME280;51042;49.696;10.808;2023-05-12T04:34:30;98250.78;;;10.39;100.00
64080;BME280;51042;49.696;10.808;2023-05-12T04:36:56;98248.03;;;10.39;100.00
64080;BME280;51042;49.696;10.808;2023-05-12T04:39:21;98257.47;;;10.38;100.00
64080;BME280;51042;49.696;10.808;2023-05-12T04:41:46;98248.38;;;10.41;100.00
64080;BME280;51042;49.696;10.808;2023-05-12T04:44:12;98250.78;;;10.39;100.00
64080;BME280;51042;49.696;10.808;2023-05-12T04:46:37;98247.59;;;10.41;100.00
64080;BME280;51042;49.696;10.808;2023-05-12T04:49:02;98247.59;;;10.41;100.00
64080;BME280;51042;49.696;10.808;2023-05-12T04:51:27;98254.28;;;10.40;100.00
64080;BME280;51042;49.696;10.808;2023-05-12T04:53:53;98257.81;;;10.40;100.00
64080;BME280;51042;49.696;10.808;2023-05-12T04:56:18;98254.19;;;10.43;100.00
64080;BME280;51042;49.696;10.808;2023-05-12T04:58:44;98249.47;;;10.44;100.00
64080;BME280;51042;49.696;10.808;2023-05-12T05:01:09;98256.72;;;10.50;100.00
64080;BME280;51042;49.696;10.808;2023-05-12T05:03:36;98257.25;;;10.45;100.00
64080;BME280;51042;49.696;10.808;2023-05-12T05:06:01;98256.06;;;10.46;100.00
64080;BME280;51042;49.696;10.808;2023-05-12T05:08:26;98262.19;;;10.50;100.00
64080;BME280;51042;49.696;10.808;2023-05-12T05:10:52;98257.41;;;10.54;100.00
64080;BME280;51042;49.696;10.808;2023-05-12T05:13:17;98253.75;;;10.57;100.00
64080;BME280;51042;49.696;10.808;2023-05-12T05:15:52;98259.03;;;10.64;100.00
64080;BME280;51042;49.696;10.808;2023-05-12T05:18:18;98256.16;;;10.68;100.00
64080;BME280;51042;49.696;10.808;2023-05-12T05:20:43;98258.28;;;10.77;100.00
64080;BME280;51042;49.696;10.808;2023-05-12T05:23:09;98252.66;;;10.80;100.00
64080;BME280;51042;49.696;10.808;2023-05-12T05:25:35;98267.38;;;10.86;100.00
64080;BME280;51042;49.696;10.808;2023-05-12T05:28:00;98257.94;;;10.87;100.00
64080;BME280;51042;49.696;10.808;2023-05-12T05:30:25;98274.19;;;10.94;100.00
64080;BME280;51042;49.696;10.808;2023-05-12T05:32:51;98261.66;;;11.06;100.00
64080;BME280;51042;49.696;10.808;2023-05-12T05:35:17;98263.28;;;11.16;100.00
64080;BME280;51042;49.696;10.808;2023-05-12T05:37:42;98264.03;;;11.29;100.00
64080;BME280;51042;49.696;10.808;2023-05-12T05:40:08;98260.72;;;11.34;100.00
64080;BME280;51042;49.696;10.808;2023-05-12T05:42:34;98259.75;;;11.28;100.00
64080;BME280;51042;49.696;10.808;2023-05-12T05:44:59;98253.81;;;11.30;100.00
64080;BME280;51042;49.696;10.808;2023-05-12T05:47:24;98254.25;;;11.28;100.00
64080;BME280;51042;49.696;10.808;2023-05-12T05:49:52;98266.66;;;11.33;100.00
64080;BME280;51042;49.696;10.808;2023-05-12T05:52:17;98265.44;;;11.34;100.00
64080;BME280;51042;49.696;10.808;2023-05-12T05:54:42;98264.44;;;11.40;100.00
64080;BME280;51042;49.696;10.808;2023-05-12T05:57:08;98271.13;;;11.39;100.00
64080;BME280;51042;49.696;10.808;2023-05-12T05:59:33;98262.59;;;11.37;100.00
64080;BME280;51042;49.696;10.808;2023-05-12T06:01:58;98270.38;;;11.39;100.00
64080;BME280;51042;49.696;10.808;2023-05-12T06:04:24;98274.00;;;11.49;100.00
64080;BME280;51042;49.696;10.808;2023-05-12T06:06:49;98277.91;;;11.60;100.00
64080;BME280;51042;49.696;10.808;2023-05-12T06:09:15;98285.25;;;11.63;100.00
64080;BME280;51042;49.696;10.808;2023-05-12T06:11:40;98285.59;;;11.65;100.00
64080;BME280;51042;49.696;10.808;2023-05-12T06:14:05;98287.75;;;11.70;100.00
64080;BME280;51042;49.696;10.808;2023-05-12T06:16:31;98291.28;;;11.71;100.00
64080;BME280;51042;49.696;10.808;2023-05-12T06:18:56;98293.25;;;11.70;100.00
64080;BME280;51042;49.696;10.808;2023-05-12T06:21:21;98298.66;;;11.74;100.00
64080;BME280;51042;49.696;10.808;2023-05-12T06:23:47;98290.41;;;11.74;100.00
64080;BME280;51042;49.696;10.808;2023-05-12T06:26:12;98298.22;;;11.75;100.00
64080;BME280;51042;49.696;10.808;2023-05-12T06:28:38;98294.81;;;11.71;100.00
64080;BME280;51042;49.696;10.808;2023-05-12T06:31:05;98299.88;;;11.73;100.00
64080;BME280;51042;49.696;10.808;2023-05-12T06:33:32;98302.94;;;11.75;100.00
64080;BME280;51042;49.696;10.808;2023-05-12T06:35:57;98299.75;;;11.76;100.00
64080;BME280;51042;49.696;10.808;2023-05-12T06:38:23;98293.81;;;11.78;100.00
64080;BME280;51042;49.696;10.808;2023-05-12T06:40:48;98305.47;;;11.82;100.00
64080;BME280;51042;49.696;10.808;2023-05-12T06:43:13;98299.09;;;11.85;100.00
64080;BME280;51042;49.696;10.808;2023-05-12T06:45:39;98301.13;;;11.94;100.00
64080;BME280;51042;49.696;10.808;2023-05-12T06:48:04;98308.50;;;11.97;100.00
64080;BME280;51042;49.696;10.808;2023-05-12T06:50:30;98312.00;;;11.97;100.00
64080;BME280;51042;49.696;10.808;2023-05-12T06:52:55;98303.50;;;12.04;100.00
64080;BME280;51042;49.696;10.808;2023-05-12T06:55:21;98302.47;;;12.11;100.00
64080;BME280;51042;49.696;10.808;2023-05-12T06:57:46;98307.97;;;12.11;100.00
64080;BME280;51042;49.696;10.808;2023-05-12T07:00:12;98311.19;;;12.09;100.00
64080;BME280;51042;49.696;10.808;2023-05-12T07:02:38;98309.84;;;12.14;100.00
64080;BME280;51042;49.696;10.808;2023-05-12T07:05:03;98301.06;;;12.06;100.00
64080;BME280;51042;49.696;10.808;2023-05-12T07:07:29;98303.38;;;12.08;100.00
64080;BME280;51042;49.696;10.808;2023-05-12T07:09:54;98310.66;;;12.23;100.00
64080;BME280;51042;49.696;10.808;2023-05-12T07:12:21;98307.22;;;12.32;100.00
64080;BME280;51042;49.696;10.808;2023-05-12T07:14:46;98308.28;;;12.35;100.00
64080;BME280;51042;49.696;10.808;2023-05-12T07:17:11;98304.84;;;12.43;100.00
64080;BME280;51042;49.696;10.808;2023-05-12T07:19:37;98311.41;;;12.46;100.00
64080;BME280;51042;49.696;10.808;2023-05-12T07:22:04;98309.59;;;12.43;100.00
64080;BME280;51042;49.696;10.808;2023-05-12T07:24:29;98315.00;;;12.55;100.00
64080;BME280;51042;49.696;10.808;2023-05-12T07:26:55;98314.44;;;12.60;100.00
64080;BME280;51042;49.696;10.808;2023-05-12T07:29:20;98315.53;;;12.63;100.00
64080;BME280;51042;49.696;10.808;2023-05-12T07:31:46;98315.81;;;12.65;100.00
64080;BME280;51042;49.696;10.808;2023-05-12T07:34:11;98312.81;;;12.72;100.00
64080;BME280;51042;49.696;10.808;2023-05-12T07:36:37;98312.34;;;12.74;100.00
64080;BME280;51042;49.696;10.808;2023-05-12T07:39:02;98314.47;;;12.69;100.00
64080;BME280;51042;49.696;10.808;2023-05-12T07:41:27;98317.81;;;12.64;100.00
64080;BME280;51042;49.696;10.808;2023-05-12T07:43:53;98320.25;;;12.62;100.00
64080;BME280;51042;49.696;10.808;2023-05-12T07:46:18;98313.91;;;12.53;100.00
64080;BME280;51042;49.696;10.808;2023-05-12T07:48:44;98317.63;;;12.59;100.00
64080;BME280;51042;49.696;10.808;2023-05-12T07:51:09;98325.59;;;12.57;100.00
64080;BME280;51042;49.696;10.808;2023-05-12T07:53:35;98317.31;;;12.57;100.00
64080;BME280;51042;49.696;10.808;2023-05-12T07:56:00;98323.97;;;12.47;100.00
64080;BME280;51042;49.696;10.808;2023-05-12T07:58:26;98323.00;;;12.62;100.00
64080;BME280;51042;49.696;10.808;2023-05-12T08:00:51;98329.31;;;12.72;100.00
64080;BME280;51042;49.696;10.808;2023-05-12T08:03:18;98333.97;;;12.84;100.00
64080;BME280;51042;49.696;10.808;2023-05-12T08:05:44;98329.91;;;12.67;100.00
64080;BME280;51042;49.696;10.808;2023-05-12T08:08:09;98331.09;;;12.57;100.00
64080;BME280;51042;49.696;10.808;2023-05-12T08:10:40;98336.00;;;12.62;100.00
64080;BME280;51042;49.696;10.808;2023-05-12T08:13:06;98337.50;;;12.85;100.00
64080;BME280;51042;49.696;10.808;2023-05-12T08:15:31;98336.81;;;12.72;100.00
64080;BME280;51042;49.696;10.808;2023-05-12T08:17:56;98333.09;;;12.65;100.00
64080;BME280;51042;49.696;10.808;2023-05-12T08:20:22;98333.09;;;12.65;100.00
64080;BME280;51042;49.696;10.808;2023-05-12T08:22:47;98341.97;;;12.60;100.00
64080;BME280;51042;49.696;10.808;2023-05-12T08:25:14;98334.69;;;12.76;100.00
64080;BME280;51042;49.696;10.808;2023-05-12T08:27:40;98339.63;;;12.81;100.00
64080;BME280;51042;49.696;10.808;2023-05-12T08:30:05;98343.00;;;12.85;100.00
64080;BME280;51042;49.696;10.808;2023-05-12T08:32:31;98345.41;;;13.04;100.00
64080;BME280;51042;49.696;10.808;2023-05-12T08:34:56;98344.56;;;13.17;100.00
64080;BME280;51042;49.696;10.808;2023-05-12T08:37:21;98356.72;;;13.06;100.00
64080;BME280;51042;49.696;10.808;2023-05-12T08:39:47;98350.16;;;13.04;100.00
64080;BME280;51042;49.696;10.808;2023-05-12T08:44:43;98348.78;;;13.39;100.00
64080;BME280;51042;49.696;10.808;2023-05-12T08:47:10;98355.81;;;13.40;100.00
64080;BME280;51042;49.696;10.808;2023-05-12T08:49:36;98353.19;;;13.28;100.00
64080;BME280;51042;49.696;10.808;2023-05-12T08:52:03;98362.34;;;13.25;100.00
64080;BME280;51042;49.696;10.808;2023-05-12T08:54:29;98354.06;;;13.25;100.00
64080;BME280;51042;49.696;10.808;2023-05-12T08:56:56;98354.66;;;13.20;100.00
64080;BME280;51042;49.696;10.808;2023-05-12T08:59:22;98358.34;;;13.17;100.00
64080;BME280;51042;49.696;10.808;2023-05-12T09:01:48;98362.16;;;13.19;100.00
64080;BME280;51042;49.696;10.808;2023-05-12T09:04:14;98358.03;;;13.15;100.00
64080;BME280;51042;49.696;10.808;2023-05-12T09:06:41;98368.00;;;13.21;100.00
64080;BME280;51042;49.696;10.808;2023-05-12T09:09:07;98368.63;;;13.25;100.00
64080;BME280;51042;49.696;10.808;2023-05-12T09:11:33;98358.38;;;13.26;100.00
64080;BME280;51042;49.696;10.808;2023-05-12T09:14:03;98356.28;;;13.39;100.00
64080;BME280;51042;49.696;10.808;2023-05-12T09:16:36;98353.84;;;13.50;100.00
64080;BME280;51042;49.696;10.808;2023-05-12T09:19:05;98350.38;;;13.77;100.00
64080;BME280;51042;49.696;10.808;2023-05-12T09:21:31;98357.44;;;13.78;100.00
64080;BME280;51042;49.696;10.808;2023-05-12T09:23:58;98363.91;;;13.93;100.00
64080;BME280;51042;49.696;10.808;2023-05-12T09:26:30;98367.28;;;13.88;100.00
64080;BME280;51042;49.696;10.808;2023-05-12T09:29:07;98369.88;;;14.01;100.00
64080;BME280;51042;49.696;10.808;2023-05-12T09:31:33;98368.00;;;13.88;100.00
64080;BME280;51042;49.696;10.808;2023-05-12T09:33:59;98370.47;;;13.96;100.00
64080;BME280;51042;49.696;10.808;2023-05-12T09:36:26;98371.13;;;14.00;100.00
64080;BME280;51042;49.696;10.808;2023-05-12T09:39:05;98367.09;;;13.92;100.00
64080;BME280;51042;49.696;10.808;2023-05-12T09:41:35;98376.00;;;13.96;100.00
64080;BME280;51042;49.696;10.808;2023-05-12T09:44:01;98370.50;;;14.23;100.00
64080;BME280;51042;49.696;10.808;2023-05-12T09:46:27;98364.84;;;14.45;100.00
64080;BME280;51042;49.696;10.808;2023-05-12T09:48:56;98365.59;;;14.63;100.00
64080;BME280;51042;49.696;10.808;2023-05-12T09:51:22;98367.75;;;14.59;100.00
64080;BME280;51042;49.696;10.808;2023-05-12T09:53:48;98368.94;;;14.67;100.00
64080;BME280;51042;49.696;10.808;2023-05-12T09:56:14;98371.25;;;14.60;100.00
64080;BME280;51042;49.696;10.808;2023-05-12T09:58:41;98367.28;;;14.70;100.00
64080;BME280;51042;49.696;10.808;2023-05-12T10:01:09;98367.38;;;14.94;100.00
64080;BME280;51042;49.696;10.808;2023-05-12T10:03:36;98360.84;;;15.15;93.49
64080;BME280;51042;49.696;10.808;2023-05-12T10:06:05;98359.78;;;15.13;91.28
64080;BME280;51042;49.696;10.808;2023-05-12T10:08:37;98368.78;;;14.89;94.24
64080;BME280;51042;49.696;10.808;2023-05-12T10:11:08;98362.66;;;14.76;97.76
64080;BME280;51042;49.696;10.808;2023-05-12T10:13:33;98363.47;;;14.58;98.13
64080;BME280;51042;49.696;10.808;2023-05-12T10:15:59;98367.91;;;14.56;98.81
64080;BME280;51042;49.696;10.808;2023-05-12T10:18:25;98358.53;;;14.72;97.67
64080;BME280;51042;49.696;10.808;2023-05-12T10:20:52;98366.22;;;15.09;99.37
64080;BME280;51042;49.696;10.808;2023-05-12T10:23:20;98360.63;;;15.28;95.86
64080;BME280;51042;49.696;10.808;2023-05-12T10:25:46;98368.28;;;15.00;97.07
64080;BME280;51042;49.696;10.808;2023-05-12T10:28:13;98359.66;;;15.07;93.63
64080;BME280;51042;49.696;10.808;2023-05-12T10:30:39;98358.47;;;14.90;92.75
64080;BME280;51042;49.696;10.808;2023-05-12T10:33:06;98354.34;;;14.85;92.03
64080;BME280;51042;49.696;10.808;2023-05-12T10:35:34;98359.44;;;15.20;91.83
64080;BME280;51042;49.696;10.808;2023-05-12T10:38:10;98356.38;;;15.18;87.42
64080;BME280;51042;49.696;10.808;2023-05-12T10:40:58;98364.66;;;15.50;90.82
64080;BME280;51042;49.696;10.808;2023-05-12T10:43:24;98363.78;;;15.44;87.76
64080;BME280;51042;49.696;10.808;2023-05-12T10:48:56;98361.94;;;15.74;82.27
64080;BME280;51042;49.696;10.808;2023-05-12T10:53:56;98372.78;;;15.30;83.04
64080;BME280;51042;49.696;10.808;2023-05-12T10:56:30;98368.81;;;15.22;83.60
64080;BME280;51042;49.696;10.808;2023-05-12T11:01:38;98376.72;;;15.38;85.17
64080;BME280;51042;49.696;10.808;2023-05-12T11:04:14;98375.47;;;15.39;83.30
64080;BME280;51042;49.696;10.808;2023-05-12T11:06:41;98369.44;;;15.59;84.96
64080;BME280;51042;49.696;10.808;2023-05-12T11:09:08;98371.47;;;15.97;82.76
64080;BME280;51042;49.696;10.808;2023-05-12T11:11:35;98372.78;;;15.87;80.34
64080;BME280;51042;49.696;10.808;2023-05-12T11:14:00;98372.00;;;15.63;81.17
64080;BME280;51042;49.696;10.808;2023-05-12T11:16:26;98369.47;;;15.98;79.99
64080;BME280;51042;49.696;10.808;2023-05-12T11:19:04;98363.16;;;16.21;77.86
64080;BME280;51042;49.696;10.808;2023-05-12T11:21:33;98372.75;;;16.34;75.52
64080;BME280;51042;49.696;10.808;2023-05-12T11:23:59;98370.47;;;16.48;76.85
64080;BME280;51042;49.696;10.808;2023-05-12T11:26:26;98366.44;;;16.34;74.93
64080;BME280;51042;49.696;10.808;2023-05-12T11:28:52;98371.47;;;16.21;77.27
64080;BME280;51042;49.696;10.808;2023-05-12T11:31:18;98366.50;;;16.63;73.27
64080;BME280;51042;49.696;10.808;2023-05-12T11:33:44;98367.78;;;16.39;73.90
64080;BME280;51042;49.696;10.808;2023-05-12T11:36:10;98371.75;;;16.23;74.62
64080;BME280;51042;49.696;10.808;2023-05-12T11:38:35;98376.88;;;16.15;75.37
64080;BME280;51042;49.696;10.808;2023-05-12T11:41:01;98374.72;;;16.19;76.09
64080;BME280;51042;49.696;10.808;2023-05-12T11:43:26;98371.25;;;16.10;75.69
64080;BME280;51042;49.696;10.808;2023-05-12T11:45:52;98365.19;;;16.20;75.80
64080;BME280;51042;49.696;10.808;2023-05-12T11:48:19;98364.53;;;16.40;75.43
64080;BME280;51042;49.696;10.808;2023-05-12T11:50:45;98368.53;;;16.78;71.56
64080;BME280;51042;49.696;10.808;2023-05-12T11:53:12;98364.84;;;16.57;71.89
64080;BME280;51042;49.696;10.808;2023-05-12T11:55:46;98367.88;;;16.97;72.95
64080;BME280;51042;49.696;10.808;2023-05-12T11:58:16;98384.09;;;17.34;68.68
64080;BME280;51042;49.696;10.808;2023-05-12T12:00:44;98377.88;;;17.74;67.29
64080;BME280;51042;49.696;10.808;2023-05-12T12:03:12;98364.25;;;17.76;65.55
64080;BME280;51042;49.696;10.808;2023-05-12T12:05:38;98380.81;;;17.35;65.55
64080;BME280;51042;49.696;10.808;2023-05-12T12:08:06;98379.06;;;17.67;65.70
64080;BME280;51042;49.696;10.808;2023-05-12T12:10:33;98367.13;;;18.02;65.14
64080;BME280;51042;49.696;10.808;2023-05-12T12:12:59;98366.16;;;18.25;63.10
64080;BME280;51042;49.696;10.808;2023-05-12T12:15:25;98373.59;;;17.93;63.70
64080;BME280;51042;49.696;10.808;2023-05-12T12:17:51;98372.47;;;17.85;65.53
64080;BME280;51042;49.696;10.808;2023-05-12T12:20:16;98383.19;;;17.57;63.98
64080;BME280;51042;49.696;10.808;2023-05-12T12:22:42;98386.06;;;17.48;66.35
64080;BME280;51042;49.696;10.808;2023-05-12T12:25:08;98382.88;;;17.55;65.29
64080;BME280;51042;49.696;10.808;2023-05-12T12:27:33;98378.66;;;16.81;67.72
64080;BME280;51042;49.696;10.808;2023-05-12T12:29:58;98382.78;;;16.47;66.28
64080;BME280;51042;49.696;10.808;2023-05-12T12:32:24;98384.34;;;16.48;67.56
64080;BME280;51042;49.696;10.808;2023-05-12T12:34:49;98383.06;;;16.72;68.13
64080;BME280;51042;49.696;10.808;2023-05-12T12:37:15;98395.31;;;16.42;67.90
64080;BME280;51042;49.696;10.808;2023-05-12T12:39:41;98388.31;;;16.32;68.46
64080;BME280;51042;49.696;10.808;2023-05-12T12:42:06;98388.94;;;16.12;68.53
64080;BME280;51042;49.696;10.808;2023-05-12T12:44:31;98396.16;;;16.10;69.82
64080;BME280;51042;49.696;10.808;2023-05-12T12:46:57;98380.78;;;16.09;69.92
64080;BME280;51042;49.696;10.808;2023-05-12T12:49:22;98391.09;;;16.32;69.28